• Join FlightAware (Why Join?)
  • Login
  • US Flag 
09:22AM EDT


 

Airport Tracker/Info


-or-


 

Live Flight TrackerFlight Track Log ✈ JBU1513 ✈ 02-Sep-2013 ✈ KAUS - KSFO

Flight Track Log - Related Links

Times and Time Zones

All times are in EDT time to prevent confusion due to time zone crossing. See the JBU1513 flight status page for this flight to view local times or setup timezone preferences in your user account.

Time Position Orientation Groundspeed Altitude Reporting Facility
EDT Latitude Longitude Course Direction KTS MPH feet Rate Location/Type
11:59PM 30.1712 -97.6821 193° South 148 170 2,000  Level FlightAware ADS-B
11:59PM 30.1544 -97.6913 205° Southwest 148 170 2,400 960 Climbing FlightAware ADS-B
12:00AM 30.1526 -97.6952 242° Southwest 174 200 2,500 780 Climbing FlightAware ADS-B
12:00AM 30.1523 -97.7126 269° West 183 211 2,700 780 Climbing FlightAware ADS-B
12:00AM 30.1549 -97.7191 295° West 218 251 2,800 660 Climbing FlightAware ADS-B
12:00AM 30.1565 -97.7222 301° West 225 259 2,800 720 Level FlightAware ADS-B
12:00AM 30.1598 -97.7274 306° West 236 272 2,900 1,200 Climbing FlightAware ADS-B
12:00AM 30.1707 -97.7436 308° West 261 300 3,200 1,740 Climbing FlightAware ADS-B
12:01AM 30.1831 -97.7620 308° West 276 318 3,800 2,640 Climbing FlightAware ADS-B
12:01AM 30.1898 -97.7728 306° West 278 320 4,300 3,360 Climbing FlightAware ADS-B
12:01AM 30.2002 -97.7924 302° West 277 319 5,200 3,060 Climbing FlightAware ADS-B
12:01AM 30.2100 -97.8117 300° West 282 325 5,900 2,880 Climbing FlightAware ADS-B
12:02AM 30.2207 -97.8325 301° West 285 328 6,700 3,060 Climbing FlightAware ADS-B
12:02AM 30.2314 -97.8534 301° West 289 333 7,500 2,760 Climbing FlightAware ADS-B
12:02AM 30.2417 -97.8737 300° West 295 339 8,100 2,460 Climbing FlightAware ADS-B
12:02AM 30.2526 -97.8951 301° West 300 345 8,800 2,880 Climbing FlightAware ADS-B
12:03AM 30.2661 -97.9214 301° West 302 348 9,800 2,460 Climbing FlightAware ADS-B
12:03AM 30.2890 -97.9650 301° West 315 362 10,900 1,560 Climbing FlightAware
12:04AM 30.3122 -98.0112 300° West 300 345 11,400 1,200 Climbing FlightAware ADS-B
12:04AM 30.3420 -98.0700 300° West 376 433 12,200 1,800 Climbing FlightAware
12:05AM 30.3651 -98.1144 301° West 300 345 13,200 2,340 Climbing FlightAware ADS-B
12:05AM 30.3732 -98.1276 305° West 382 440 13,500 1,980 Climbing FlightAware ADS-B
12:05AM 30.4096 -98.1555 327° Northwest 383 441 14,300 2,100 Climbing FlightAware ADS-B
12:06AM 30.5220 -98.1930 344° North 386 444 16,700 2,220 Climbing FlightAware
12:07AM 30.5840 -98.2160 342° North 381 438 18,200 2,280 Climbing FlightAware
12:07AM 30.6310 -98.2330 343° North 384 442 19,200 2,040 Climbing FlightAware
12:08AM 30.6960 -98.2560 343° North 383 441 20,500 1,800 Climbing FlightAware
12:09AM 30.7550 -98.2770 343° North 391 450 21,400 1,500 Climbing FlightAware
12:09AM 30.8110 -98.2960 344° North 396 456 22,200 1,380 Climbing FlightAware
12:10AM 30.8860 -98.3200 345° North 404 465 23,100 1,260 Climbing FlightAware
12:10AM 30.9360 -98.3500 333° Northwest 413 475 23,700 1,200 Climbing FlightAware
12:11AM 30.9580 -98.3820 309° West 418 481 24,100 1,320 Climbing FlightAware
12:11AM 30.9680 -98.4060 296° West 419 482 24,400 1,200 Climbing FlightAware
12:11AM 30.9930 -98.4840 291° West 425 489 25,100 840 Climbing FlightAware
12:12AM 31.0160 -98.5580 290° West 440 506 25,400 600 Climbing FlightAware
12:13AM 31.0420 -98.6410 290° West 450 518 25,800 720 Climbing FlightAware
12:13AM 31.0680 -98.7220 291° West 459 528 26,300 780 Climbing FlightAware
12:14AM 31.0920 -98.7980 290° West 464 534 26,700 720 Climbing FlightAware
12:14AM 31.1190 -98.8860 290° West 466 536 27,200 780 Climbing FlightAware
12:15AM 31.1470 -98.9740 290° West 468 539 27,700 720 Climbing FlightAware
12:16AM 31.1740 -99.0590 290° West 472 543 28,100 780 Climbing FlightAware
12:16AM 31.1970 -99.1350 290° West 473 544 28,600 780 Climbing FlightAware
12:17AM 31.2220 -99.2160 290° West 476 548 29,000 720 Climbing FlightAware
12:17AM 31.2510 -99.3090 290° West 480 552 29,500 1,020 Climbing FlightAware
12:18AM 31.2760 -99.3870 291° West 477 549 30,200 1,320 Climbing FlightAware
12:18AM 31.3030 -99.4750 290° West 473 544 31,000 1,500 Climbing FlightAware
12:19AM 31.3240 -99.5450 289° West 468 539 31,900 1,200 Climbing FlightAware
12:20AM 31.3550 -99.6460 290° West 471 542 32,500 780 Climbing FlightAware
12:20AM 31.3790 -99.7240 290° West 477 549 32,900 660 Climbing FlightAware
12:21AM 31.4050 -99.8100 290° West 481 554 33,300 840 Climbing FlightAware
12:21AM 31.4310 -99.8940 290° West 479 551 33,900 960 Climbing FlightAware
12:22AM 31.4590 -99.9860 290° West 479 551 34,500 1,020 Climbing FlightAware
12:23AM 31.4860 -100.0740 290° West 476 548 35,200 1,020 Climbing FlightAware
12:23AM 31.5100 -100.1530 290° West 475 547 35,700 660 Climbing FlightAware
12:24AM 31.5350 -100.2390 289° West 478 550 36,000 240 Climbing FlightAware
12:24AM 31.5620 -100.3280 290° West 477 549 36,000  Level FlightAware
12:25AM 31.5870 -100.4110 289° West 478 550 36,000  Level FlightAware
12:25AM 31.6110 -100.4930 289° West 480 552 36,000  Level FlightAware
12:26AM 31.6380 -100.5830 289° West 480 552 36,000  Level FlightAware
12:27AM 31.6650 -100.6720 290° West 480 552 36,000  Level FlightAware
12:27AM 31.6870 -100.7460 289° West 479 551 36,000  Level FlightAware
12:28AM 31.7140 -100.8390 289° West 479 551 36,000  Level FlightAware
12:28AM 31.7400 -100.9260 289° West 479 551 36,000  Level FlightAware
12:29AM 31.7660 -101.0150 289° West 480 552 36,000  Level FlightAware
12:29AM 31.7890 -101.0950 289° West 481 554 36,000  Level FlightAware
12:30AM 31.8150 -101.1840 289° West 480 552 36,000  Level FlightAware
12:31AM 31.8410 -101.2720 289° West 480 552 36,000  Level FlightAware
12:31AM 31.8650 -101.3550 289° West 479 551 36,000  Level FlightAware
12:32AM 31.8910 -101.4460 289° West 479 551 36,000  Level FlightAware
12:32AM 31.9160 -101.5330 289° West 479 551 36,000  Level FlightAware
12:33AM 31.9390 -101.6150 288° West 479 551 36,000  Level FlightAware
12:34AM 31.9700 -101.7210 289° West 480 552 36,000  Level FlightAware
12:34AM 31.9960 -101.8100 289° West 478 550 36,000  Level FlightAware
12:35AM 32.0180 -101.8870 289° West 478 550 36,000  Level FlightAware
12:35AM 32.0400 -101.9700 287° West 478 550 36,000  Level FlightAware
12:36AM 32.0610 -102.0460 288° West 478 550 36,000  Level FlightAware
12:37AM 32.0820 -102.1210 288° West 478 550 36,000  Level FlightAware
12:37AM 32.1030 -102.1970 288° West 478 550 36,000  Level FlightAware
12:38AM 32.1240 -102.2730 288° West 478 550 36,000  Level FlightAware
12:38AM 32.1450 -102.3490 288° West 478 550 36,000  Level FlightAware
12:39AM 32.1660 -102.4250 288° West 478 550 36,000  Level FlightAware
12:40AM 32.1870 -102.5020 288° West 478 550 36,000  Level FlightAware
12:40AM 32.2080 -102.5780 288° West 478 550 36,000  Level FlightAware
12:41AM 32.2280 -102.6540 287° West 478 550 36,000  Level FlightAware
12:41AM 32.2500 -102.7320 288° West 478 550 36,000  Level FlightAware
12:42AM 32.2710 -102.8080 288° West 478 550 36,000  Level FlightAware
12:43AM 32.2920 -102.8840 288° West 478 550 36,000  Level FlightAware
12:43AM 32.3130 -102.9600 288° West 478 550 36,000  Level FlightAware
12:44AM 32.3340 -103.0360 288° West 478 550 36,000  Level FlightAware
12:45AM 32.3560 -103.1170 288° West 478 550 36,000  Level FlightAware
12:48AM 32.5386 -103.7897 287° West 465 535 36,000  Level Albuquerque Center
12:49AM 32.5775 -103.9378 287° West 469 540 36,000  Level Albuquerque Center
12:50AM 32.6236 -104.0953 289° West 466 536 36,000  Level Albuquerque Center
12:51AM 32.6619 -104.2417 287° West 463 533 36,000  Level Albuquerque Center
12:52AM 32.6255 -104.1244 287° West  Level FlightAware Approximate
12:52AM 32.6997 -104.3903 287° West 467 537 36,000  Level Albuquerque Center
12:53AM 32.6632 -104.2692 287° West  Level FlightAware Approximate
12:53AM 32.7383 -104.5394 287° West 471 542 36,000  Level Albuquerque Center
12:54AM 32.7783 -104.6986 287° West 467 537 36,000  Level Albuquerque Center
12:55AM 32.8164 -104.8472 287° West 469 540 36,000  Level Albuquerque Center
12:56AM 32.8547 -104.9944 287° West 465 535 36,000  Level Albuquerque Center
12:57AM 32.8919 -105.1433 287° West 468 539 36,000  Level Albuquerque Center
12:58AM 32.9272 -105.2844 287° West 468 539 36,000  Level Albuquerque Center
12:59AM 32.9683 -105.4406 287° West 471 542 36,000  Level Albuquerque Center
01:00AM 33.0047 -105.5883 286° West 466 536 36,000  Level Albuquerque Center
01:01AM 33.0386 -105.7233 287° West 471 542 36,000  Level Albuquerque Center
01:02AM 33.0750 -105.8711 286° West 468 539 36,000  Level Albuquerque Center
01:03AM 33.1119 -106.0214 286° West 471 542 36,000  Level Albuquerque Center
01:04AM 33.1483 -106.1700 286° West 470 541 36,000 -60 Level Albuquerque Center
01:05AM 33.1839 -106.3181 286° West 468 539 35,900  Descending Albuquerque Center
01:06AM 33.2203 -106.4647 287° West 466 536 36,000  Climbing Albuquerque Center
01:07AM 33.2553 -106.6147 286° West 469 540 35,900  Descending Albuquerque Center
01:08AM 33.2983 -106.7950 286° West 472 543 36,000  Climbing Albuquerque Center
01:09AM 33.3344 -106.9450 286° West 473 544 36,000 -60 Level Albuquerque Center
01:10AM 33.3694 -107.0947 286° West 471 542 35,900  Descending Albuquerque Center
01:11AM 33.4056 -107.2431 286° West 470 541 36,000  Climbing Albuquerque Center
01:12AM 33.4406 -107.3953 285° West 475 547 36,000  Level Albuquerque Center
01:13AM 33.4753 -107.5461 285° West 474 545 36,000 -60 Level Albuquerque Center
01:14AM 33.5106 -107.6967 286° West 473 544 35,900  Descending Albuquerque Center
01:15AM 33.5444 -107.8503 285° West 477 549 36,000  Climbing Albuquerque Center
01:16AM 33.5797 -108.0003 286° West 474 545 36,000  Level Albuquerque Center
01:17AM 33.6158 -108.1611 285° West 477 549 36,000  Level Albuquerque Center
01:18AM 33.6506 -108.3114 286° West 473 544 36,000  Level Albuquerque Center
01:19AM 33.6842 -108.4614 285° West 470 541 36,000  Level Albuquerque Center
01:20AM 33.7172 -108.6131 285° West 472 543 36,000  Level Albuquerque Center
01:21AM 33.7519 -108.7642 285° West 473 544 36,000  Level Albuquerque Center
01:22AM 33.7842 -108.9158 284° West 472 543 36,000  Level Albuquerque Center
01:23AM 33.8175 -109.0700 285° West 475 547 36,000  Level Albuquerque Center
01:24AM 33.8508 -109.2228 285° West 477 549 36,000  Level Albuquerque Center
01:25AM 33.8844 -109.3775 285° West 479 551 36,000  Level Albuquerque Center
01:30AM 34.0560 -110.1990 285° West 480 552 36,000  Level FlightAware
01:31AM 34.0790 -110.3080 284° West 480 552 36,000  Level FlightAware
01:32AM 34.0960 -110.3940 283° West 480 552 36,000 60 Level FlightAware
01:32AM 34.1150 -110.4870 284° West 479 551 36,100  Climbing FlightAware
01:33AM 34.1340 -110.5800 284° West 477 549 36,000 -120 Descending FlightAware
01:33AM 34.1510 -110.6640 284° West 477 549 36,000  Level FlightAware
01:34AM 34.1710 -110.7610 284° West 477 549 36,000  Level FlightAware
01:34AM 34.1880 -110.8480 283° West 477 549 36,000  Level FlightAware
01:35AM 34.2060 -110.9380 284° West 476 548 36,000 60 Level FlightAware
01:36AM 34.2240 -111.0290 283° West 473 544 36,100  Climbing FlightAware
01:36AM 34.2410 -111.1100 284° West 470 541 36,000 -120 Descending FlightAware
01:37AM 34.2580 -111.1980 283° West 470 541 36,000  Level FlightAware
01:37AM 34.2780 -111.2990 284° West 471 542 36,000  Level FlightAware
01:38AM 34.2960 -111.3930 283° West 471 542 36,000  Level FlightAware
01:39AM 34.3120 -111.4740 283° West 472 543 36,000  Level FlightAware
01:39AM 34.3300 -111.5670 283° West 472 543 36,000  Level FlightAware
01:40AM 34.3480 -111.6590 283° West 472 543 36,000  Level FlightAware
01:40AM 34.3660 -111.7520 283° West 471 542 36,000  Level FlightAware
01:41AM 34.3830 -111.8430 283° West 471 542 36,000  Level FlightAware
01:41AM 34.3990 -111.9240 283° West 471 542 36,000  Level FlightAware
01:42AM 34.4160 -112.0170 283° West 470 541 36,000  Level FlightAware
01:43AM 34.4350 -112.1140 283° West 469 540 36,000  Level FlightAware
01:43AM 34.4510 -112.1970 283° West 467 537 36,000  Level FlightAware
01:44AM 34.4680 -112.2880 283° West 466 536 36,000  Level FlightAware
01:44AM 34.4850 -112.3790 283° West 467 537 36,000  Level FlightAware
01:45AM 34.5010 -112.4680 282° West 467 537 36,000  Level FlightAware
01:46AM 34.5170 -112.5530 283° West 468 539 36,000  Level FlightAware
01:46AM 34.5340 -112.6440 283° West 469 540 36,000  Level FlightAware
01:47AM 34.5510 -112.7380 282° West 472 543 36,000  Level FlightAware
01:47AM 34.5670 -112.8210 283° West 472 543 36,000  Level FlightAware
01:48AM 34.5820 -112.9080 282° West 472 543 36,000  Level FlightAware
01:49AM 34.6010 -113.0120 283° West 471 542 36,000  Level FlightAware
01:49AM 34.6160 -113.0950 282° West 471 542 36,000  Level FlightAware
01:50AM 34.6330 -113.1870 283° West 470 541 36,000  Level FlightAware
01:50AM 34.6490 -113.2800 282° West 469 540 36,000 60 Level FlightAware
01:51AM 34.6640 -113.3610 283° West 467 537 36,100  Climbing FlightAware
01:51AM 34.6800 -113.4540 282° West 465 535 36,000 -120 Descending FlightAware
01:52AM 34.6960 -113.5460 282° West 462 532 36,000 300 Level FlightAware
01:53AM 34.7120 -113.6340 282° West 456 525 36,400 960 Climbing FlightAware
01:53AM 34.7260 -113.7150 282° West 449 517 37,100 1,260 Climbing FlightAware
01:54AM 34.7420 -113.8070 282° West 442 509 37,900 720 Climbing FlightAware
01:54AM 34.7580 -113.8970 282° West 451 519 38,000 60 Climbing FlightAware
01:55AM 34.7720 -113.9770 282° West 460 529 38,000  Level FlightAware
01:56AM 34.7870 -114.0670 281° West 459 528 38,000  Level FlightAware
01:56AM 34.8020 -114.1560 282° West 459 528 38,000  Level FlightAware
01:57AM 34.8160 -114.2380 282° West 459 528 38,000  Level FlightAware
01:57AM 34.8320 -114.3300 282° West 460 529 38,000  Level FlightAware
01:58AM 34.8470 -114.4190 282° West 457 526 38,000  Level FlightAware
01:58AM 34.8620 -114.5090 282° West 448 516 38,000  Level FlightAware
01:59AM 34.8750 -114.5900 281° West 452 520 38,000  Level FlightAware
02:00AM 34.8910 -114.6800 282° West 464 534 38,000  Level FlightAware
02:00AM 34.9060 -114.7730 281° West 471 542 38,000  Level FlightAware
02:01AM 34.9220 -114.8680 282° West 473 544 38,000  Level FlightAware
02:01AM 34.9360 -114.9510 282° West 473 544 38,000  Level FlightAware
02:02AM 34.9490 -115.0340 281° West 471 542 38,000  Level FlightAware
02:03AM 34.9660 -115.1400 281° West 470 541 38,000  Level FlightAware
02:03AM 34.9780 -115.2140 281° West 470 541 38,000  Level FlightAware
02:04AM 34.9950 -115.3190 281° West 471 542 38,000  Level FlightAware
02:04AM 35.0090 -115.4070 281° West 469 540 38,000  Level FlightAware
02:05AM 35.0290 -115.5060 284° West 470 541 38,000  Level FlightAware
02:05AM 35.0480 -115.5880 286° West 468 539 38,000  Level FlightAware
02:06AM 35.0660 -115.6700 285° West 467 537 38,000  Level FlightAware
02:07AM 35.0860 -115.7650 284° West 466 536 38,000  Level FlightAware
02:07AM 35.1080 -115.8720 284° West 468 539 38,000  Level FlightAware
02:08AM 35.1240 -115.9500 284° West 468 539 38,000  Level FlightAware
02:09AM 35.1410 -116.0310 284° West 468 539 38,000  Level FlightAware
02:09AM 35.1570 -116.1100 284° West 468 539 38,000 60 Level FlightAware
02:10AM 35.1880 -116.2470 286° West 473 544 38,100 60 Climbing FlightAware
02:10AM 35.2090 -116.3480 284° West 473 544 38,100 -120 Level FlightAware
02:11AM 35.2260 -116.4320 284° West 473 544 38,000 -120 Descending FlightAware
02:11AM 35.2440 -116.5160 285° West 473 544 38,000  Level FlightAware
02:12AM 35.2640 -116.6120 284° West 474 545 38,000  Level FlightAware
02:13AM 35.2830 -116.7050 284° West 474 545 38,000  Level FlightAware
02:13AM 35.3020 -116.7980 284° West 471 542 38,000  Level FlightAware
02:14AM 35.3210 -116.8910 284° West 468 539 38,000  Level FlightAware
02:14AM 35.3360 -116.9680 283° West 466 536 38,000  Level FlightAware
02:15AM 35.3560 -117.0630 284° West 466 536 38,000  Level FlightAware
02:16AM 35.3740 -117.1540 284° West 465 535 38,000  Level FlightAware
02:16AM 35.3930 -117.2510 284° West 465 535 38,000  Level FlightAware
02:17AM 35.4090 -117.3290 284° West 463 533 38,000  Level FlightAware
02:17AM 35.4270 -117.4220 283° West 463 533 38,000  Level FlightAware
02:18AM 35.4450 -117.5140 284° West 461 531 38,000  Level FlightAware
02:18AM 35.4620 -117.5980 284° West 462 532 38,000  Level FlightAware
02:19AM 35.4780 -117.6790 284° West 463 533 38,000  Level FlightAware
02:20AM 35.4960 -117.7730 283° West 464 534 38,000  Level FlightAware
02:20AM 35.5100 -117.8520 282° West 464 534 38,000  Level FlightAware
02:21AM 35.5310 -117.9530 284° West 463 533 38,000  Level FlightAware
02:21AM 35.5500 -118.0490 284° West 463 533 38,000  Level FlightAware
02:22AM 35.5680 -118.1420 283° West 462 532 38,000  Level FlightAware
02:23AM 35.5810 -118.2140 283° West 460 529 38,000  Level FlightAware
02:23AM 35.6010 -118.3190 283° West 459 528 38,000  Level FlightAware
02:24AM 35.6200 -118.4190 283° West 460 529 38,000  Level FlightAware
02:25AM 35.6400 -118.5240 283° West 460 529 38,000  Level FlightAware
02:25AM 35.6570 -118.6140 283° West 459 528 38,000  Level FlightAware
02:26AM 35.6750 -118.7110 283° West 458 527 38,000  Level FlightAware
02:26AM 35.6900 -118.7930 283° West 458 527 38,000  Level FlightAware
02:27AM 35.7060 -118.8810 283° West 457 526 38,000  Level FlightAware
02:28AM 35.7240 -118.9750 283° West 457 526 38,000  Level FlightAware
02:28AM 35.7400 -119.0650 282° West 457 526 38,000  Level FlightAware
02:29AM 35.7550 -119.1460 283° West 454 522 38,000  Level FlightAware
02:29AM 35.7720 -119.2380 283° West 453 521 38,000  Level FlightAware
02:30AM 35.7880 -119.3290 282° West 452 520 38,000  Level FlightAware
02:30AM 35.8040 -119.4170 283° West 453 521 38,000  Level FlightAware
02:31AM 35.8190 -119.4990 283° West 453 521 38,000  Level FlightAware
02:32AM 35.8350 -119.5900 282° West 453 521 38,000  Level FlightAware
02:32AM 35.8500 -119.6760 282° West 453 521 38,000  Level FlightAware
02:33AM 35.8660 -119.7660 282° West 453 521 38,000  Level FlightAware
02:33AM 35.8820 -119.8560 282° West 454 522 38,000  Level FlightAware
02:34AM 35.8980 -119.9470 282° West 453 521 38,000  Level FlightAware
02:34AM 35.9110 -120.0190 283° West 453 521 38,000  Level FlightAware
02:35AM 35.9280 -120.1160 282° West 450 518 38,000  Level FlightAware
02:36AM 35.9410 -120.1960 281° West 449 517 38,000  Level FlightAware
02:36AM 35.9580 -120.2960 282° West 449 517 38,000  Level FlightAware
02:37AM 35.9760 -120.3970 282° West 449 517 38,000  Level FlightAware
02:38AM 35.9890 -120.4780 281° West 449 517 38,000  Level FlightAware
02:38AM 36.0070 -120.5780 283° West 452 520 38,000 60 Level FlightAware
02:39AM 36.0200 -120.6570 282° West 451 519 38,100 60 Climbing FlightAware
02:39AM 36.0360 -120.7530 282° West 449 517 38,100 -120 Level FlightAware
02:40AM 36.0510 -120.8430 282° West 448 516 38,000 -120 Descending FlightAware
02:40AM 36.0650 -120.9240 282° West 447 514 38,000 -180 Level FlightAware
02:41AM 36.0790 -121.0100 281° West 444 511 37,800 -720 Descending FlightAware
02:42AM 36.0940 -121.1040 281° West 446 513 37,200 -1,320 Descending FlightAware
02:42AM 36.1070 -121.1840 281° West 444 511 36,300 -1,980 Descending FlightAware
02:43AM 36.1220 -121.2760 281° West 444 511 34,900 -2,760 Descending FlightAware
02:43AM 36.1400 -121.3550 286° West 463 533 33,100 -3,240 Descending FlightAware
02:44AM 36.2020 -121.4490 309° West 492 566 30,800 -3,420 Descending FlightAware
02:45AM 36.2640 -121.5060 323° Northwest 480 552 28,700 -3,180 Descending FlightAware
02:45AM 36.3220 -121.5620 322° Northwest 474 545 27,200 -2,400 Descending FlightAware
02:46AM 36.3830 -121.6190 323° Northwest 463 533 26,000 -2,220 Descending FlightAware
02:46AM 36.4450 -121.6780 323° Northwest 454 522 24,600 -2,340 Descending FlightAware
02:47AM 36.5000 -121.7300 323° Northwest 444 511 23,300 -2,340 Descending FlightAware
02:48AM 36.5610 -121.7890 322° Northwest 431 496 21,900 -2,280 Descending FlightAware
02:48AM 36.6150 -121.8400 323° Northwest 422 486 20,500 -2,280 Descending FlightAware
02:49AM 36.6620 -121.8850 322° Northwest 413 475 19,400 -2,520 Descending FlightAware
02:49AM 36.7190 -121.9390 323° Northwest 405 466 17,700 -2,760 Descending FlightAware
02:50AM 36.7770 -121.9740 334° Northwest 411 473 16,100 -2,640 Descending FlightAware
02:51AM 36.8490 -121.9920 349° North 402 463 14,500 -2,580 Descending FlightAware
02:51AM 36.9070 -122.0070 348° North 393 452 13,100 -2,520 Descending FlightAware
02:52AM 36.9650 -122.0220 348° North 371 427 11,800 -1,800 Descending FlightAware
02:52AM 37.0260 -122.0380 348° North 326 375 11,000 -1,080 Descending FlightAware
02:53AM 37.0750 -122.0510 348° North 295 339 10,500 -780 Descending FlightAware
02:53AM 37.1110 -122.0630 345° North 279 321 10,200 -780 Descending FlightAware
02:54AM 37.1210 -122.0730 321° Northwest 272 313 10,000 -1,200 Descending FlightAware
02:54AM 37.1280 -122.0850 306° West 263 303 9,800 -1,140 Descending FlightAware
02:54AM 37.1310 -122.0950 291° West 257 296 9,700 -1,080 Descending FlightAware
02:54AM 37.1400 -122.1230 292° West 254 292 9,300 -1,140 Descending FlightAware
02:54AM 37.1489 -122.1550 289° West 254 292 8,900 -1,140 Descending FlightAware ADS-B
02:55AM 37.1548 -122.1760 289° West 252 290 8,600 -1,200 Descending FlightAware ADS-B
02:55AM 37.1613 -122.1980 290° West 252 290 8,300 -960 Descending FlightAware ADS-B
02:55AM 37.1675 -122.2190 290° West 245 282 8,100 -480 Descending FlightAware ADS-B
02:56AM 37.1760 -122.2490 290° West 242 278 8,000 -180 Descending FlightAware ADS-B
02:56AM 37.1820 -122.2710 289° West 246 283 8,000  Level FlightAware ADS-B
02:57AM 37.1956 -122.3190 290° West 246 283 8,000 -420 Level FlightAware ADS-B
02:57AM 37.2250 -122.3580 313° West 246 283 7,500 -840 Descending FlightAware ADS-B
02:57AM 37.2308 -122.3620 331° Northwest 255 293 7,400 -900 Descending FlightAware ADS-B
02:58AM 37.2534 -122.3800 328° Northwest 252 290 7,100 -360 Descending FlightAware ADS-B
02:58AM 37.2990 -122.4160 328° Northwest 252 290 7,000 -120 Descending FlightAware
02:59AM 37.3140 -122.4280 328° Northwest 251 289 7,000 -180 Level FlightAware
02:59AM 37.3350 -122.4410 334° Northwest 252 290 6,900 -480 Descending FlightAware
02:59AM 37.3440 -122.4430 350° North 252 290 6,800 -1,080 Descending FlightAware
02:59AM 37.3670 -122.4340 17° North 254 292 6,400 -1,140 Descending FlightAware
03:00AM 37.3750 -122.4210 52° Northeast 250 288 6,200 -1,200 Descending FlightAware
03:00AM 37.3790 -122.4100 65° Northeast 246 283 6,000 -720 Descending FlightAware
03:00AM 37.3813 -122.3950 79° East 252 290 6,000  Level FlightAware ADS-B
03:00AM 37.3839 -122.3730 82° East 248 285 6,000 -240 Level FlightAware ADS-B
03:00AM 37.3863 -122.3520 82° East 247 284 5,900  Descending FlightAware ADS-B
03:01AM 37.3888 -122.3300 82° East 235 270 6,000 180 Climbing FlightAware ADS-B
03:01AM 37.3911 -122.3100 82° East 222 255 6,000  Level FlightAware ADS-B
03:01AM 37.3937 -122.2890 81° East 222 255 6,000  Level FlightAware ADS-B
03:02AM 37.3990 -122.2480 81° East 211 243 6,000 -420 Level FlightAware
03:02AM 37.4057 -122.2300 65° Northeast 222 255 5,700 -1,080 Descending FlightAware ADS-B
03:02AM 37.4097 -122.2230 54° Northeast 214 246 5,600 -1,140 Descending FlightAware ADS-B
03:02AM 37.4151 -122.2150 50° Northeast 214 246 5,400 -960 Descending FlightAware ADS-B
03:02AM 37.4181 -122.2120 38° Northeast 214 246 5,400 -780 Level FlightAware ADS-B
03:03AM 37.4215 -122.2090 35° Northeast 214 246 5,300 -1,500 Descending FlightAware ADS-B
03:03AM 37.4252 -122.2070 23° Northeast 213 245 5,200 -900 Descending FlightAware ADS-B
03:03AM 37.4391 -122.1990 25° Northeast 207 238 5,000 -840 Descending FlightAware ADS-B
03:03AM 37.4442 -122.1960 25° Northeast 207 238 4,900 -1,380 Descending FlightAware ADS-B
03:03AM 37.4471 -122.1950 15° North 207 238 4,800 -1,740 Descending FlightAware ADS-B
03:03AM 37.4507 -122.1940 12° North 206 237 4,700 -1,500 Descending FlightAware ADS-B
03:03AM 37.4543 -122.1940 360° North 205 236 4,600 -1,440 Descending FlightAware ADS-B
03:04AM 37.4859 -122.1960 357° North 204 235 3,800 -1,440 Descending FlightAware ADS-B
03:04AM 37.4954 -122.1970 355° North 188 216 3,500 -1,920 Descending FlightAware ADS-B
03:04AM 37.5081 -122.1970 360° North 189 217 3,000 -2,040 Descending FlightAware ADS-B
03:04AM 37.5170 -122.1980 355° North 189 217 2,700 -1,380 Descending FlightAware ADS-B
03:04AM 37.5233 -122.1980 360° North 186 214 2,600 -360 Descending FlightAware ADS-B
03:05AM 37.5311 -122.1990 354° North 180 207 2,600  Level FlightAware ADS-B
03:05AM 37.5339 -122.1990 360° North 183 211 2,600  Level FlightAware ADS-B
03:05AM 37.5368 -122.2000 345° North 182 209 2,600  Level FlightAware ADS-B
03:05AM 37.5395 -122.2020 330° Northwest 183 211 2,600 -900 Level FlightAware ADS-B
03:05AM 37.5416 -122.2030 339° North 182 209 2,500 -780 Descending FlightAware ADS-B
03:05AM 37.5446 -122.2060 322° Northwest 178 205 2,500 -900 Level FlightAware ADS-B
03:05AM 37.5460 -122.2070 330° Northwest 174 200 2,400 -900 Descending FlightAware ADS-B
03:05AM 37.5482 -122.2110 305° West 168 193 2,400 -780 Level FlightAware ADS-B
03:05AM 37.5502 -122.2140 310° West 162 186 2,300 -1,140 Descending FlightAware ADS-B
03:05AM 37.5529 -122.2190 304° West 153 176 2,200 -720 Descending FlightAware ADS-B
03:05AM 37.5561 -122.2260 300° West 146 168 2,100 -720 Descending FlightAware ADS-B
03:05AM 37.5592 -122.2330 299° West 149 171 2,000 -780 Descending FlightAware ADS-B
03:06AM 37.5645 -122.2450 299° West 146 168 1,800 -540 Descending FlightAware ADS-B
03:06AM 37.5667 -122.2500 299° West 146 168 1,800 -480 Level FlightAware ADS-B
03:06AM 37.5724 -122.2650 296° West 147 169 1,600 -600 Descending FlightAware ADS-B
03:06AM 37.5756 -122.2740 294° West 134 154 1,500 -840 Descending FlightAware ADS-B
03:07AM 37.5783 -122.2810 296° West 132 152 1,300 -1,020 Descending FlightAware ADS-B
03:07AM 37.5807 -122.2860 301° West 128 147 1,200 -840 Descending FlightAware ADS-B
03:07AM 37.5828 -122.2910 298° West 126 145 1,100 -540 Descending FlightAware ADS-B
03:07AM 37.5877 -122.3020 299° West 127 146 1,000 -540 Descending FlightAware ADS-B
03:07AM 37.5932 -122.3150 298° West 130 150 800 -660 Descending FlightAware ADS-B
03:08AM 37.6006 -122.3320 299° West 129 148 500 -780 Descending FlightAware ADS-B
03:08AM 37.6046 -122.3420 297° West 131 151 300 -720 Descending FlightAware ADS-B
03:08AM 37.6076 -122.3490 298° West 132 152 200 -420 Descending FlightAware ADS-B
03:08AM 37.6092 -122.3520 304° West 132 152 200 -180 Level FlightAware ADS-B
03:09AM 37.6160 -122.3700 296° West 132 152 100 -240 Descending FlightAware
03:17AM 37.6167 -122.3667 322° Northwest  Level FlightAware Approximate